createdAt,value
2019-03-24T00:00:05.785Z,110.70
2019-03-24T00:02:37.443Z,124.65
2019-03-24T00:05:06.518Z,121.22
2019-03-24T00:07:45.987Z,119.37
2019-03-24T00:10:20.804Z,113.47
2019-03-24T00:12:52.969Z,120.13
2019-03-24T00:15:27.939Z,122.83
2019-03-24T00:18:04.659Z,112.15
2019-03-24T00:20:38.749Z,118.10
2019-03-24T00:23:09.297Z,112.10
2019-03-24T00:25:38.182Z,118.67
2019-03-24T00:28:09.728Z,112.05
2019-03-24T00:30:40.367Z,116.17
2019-03-24T00:35:59.439Z,113.12
2019-03-24T00:38:28.452Z,114.50
2019-03-24T00:41:00.720Z,114.62
2019-03-24T00:43:32.563Z,113.73
2019-03-24T00:46:04.519Z,111.25
2019-03-24T00:48:39.052Z,116.42
2019-03-24T00:51:12.332Z,110.08
2019-03-24T00:53:44.605Z,109.05
2019-03-24T00:56:25.185Z,112.77
2019-03-24T00:58:59.887Z,109.45
2019-03-24T01:01:33.820Z,110.93
2019-03-24T01:04:12.742Z,107.35
2019-03-24T01:06:47.444Z,105.40
2019-03-24T01:09:17.668Z,116.53
2019-03-24T01:11:46.971Z,111.00
2019-03-24T01:14:19.666Z,110.50
2019-03-24T01:16:50.276Z,119.50
2019-03-24T01:19:20.386Z,118.73
2019-03-24T01:21:51.344Z,116.08
2019-03-24T01:24:22.685Z,122.90
2019-03-24T01:26:55.012Z,122.55
2019-03-24T01:29:27.459Z,121.03
2019-03-24T01:32:00.095Z,117.70
2019-03-24T01:34:28.987Z,130.90
2019-03-24T01:36:57.976Z,123.20
2019-03-24T01:39:30.038Z,127.45
2019-03-24T01:41:59.053Z,127.95
2019-03-24T01:44:36.335Z,128.00
2019-03-24T01:47:11.268Z,123.13
2019-03-24T01:49:43.831Z,126.10
2019-03-24T01:52:15.703Z,119.30
2019-03-24T01:54:48.879Z,124.47
2019-03-24T01:57:22.196Z,126.53
2019-03-24T01:59:50.747Z,137.43
2019-03-24T02:02:24.982Z,137.37
2019-03-24T02:05:04.817Z,142.70
2019-03-24T02:07:33.496Z,134.57
2019-03-24T02:10:07.599Z,138.03
2019-03-24T02:12:37.023Z,151.12
2019-03-24T02:15:11.958Z,141.18
2019-03-24T02:17:41.131Z,143.35
2019-03-24T02:20:13.306Z,149.93
2019-03-24T02:22:44.459Z,151.97
2019-03-24T02:25:17.651Z,146.93
2019-03-24T02:27:53.912Z,139.75
2019-03-24T02:30:24.216Z,141.43
2019-03-24T02:32:53.212Z,140.23
2019-03-24T02:35:22.104Z,144.62
2019-03-24T02:37:51.293Z,138.90
2019-03-24T02:40:35.671Z,115.87
2019-03-24T02:43:06.581Z,102.52
2019-03-24T02:45:37.846Z,95.87
2019-03-24T02:48:08.252Z,98.40
2019-03-24T02:50:41.742Z,88.30
2019-03-24T02:53:17.295Z,75.73
2019-03-24T02:55:47.516Z,71.33
2019-03-24T02:58:19.748Z,77.50
2019-03-24T03:00:53.025Z,72.20
2019-03-24T03:03:24.515Z,77.87
2019-03-24T03:05:55.875Z,73.37
2019-03-24T03:08:25.645Z,71.07
2019-03-24T03:10:57.764Z,78.45
2019-03-24T03:13:28.496Z,62.83
2019-03-24T03:15:59.339Z,68.80
2019-03-24T03:18:30.871Z,67.55
2019-03-24T03:21:07.918Z,60.17
2019-03-24T03:23:38.272Z,56.73
2019-03-24T03:26:07.155Z,57.90
2019-03-24T03:28:37.886Z,61.45
2019-03-24T03:31:06.674Z,57.50
2019-03-24T03:33:35.603Z,56.10
2019-03-24T03:36:11.463Z,61.22
2019-03-24T03:38:48.596Z,49.13
2019-03-24T03:41:19.663Z,51.98
2019-03-24T03:43:52.846Z,51.80
2019-03-24T03:46:23.783Z,46.23
2019-03-24T03:51:48.991Z,45.83
2019-03-24T03:54:27.850Z,50.83
2019-03-24T03:56:56.804Z,45.47
2019-03-24T03:59:28.354Z,47.40
2019-03-24T04:02:16.209Z,38.48
2019-03-24T04:04:46.426Z,39.17
2019-03-24T04:07:16.216Z,48.13
2019-03-24T04:09:52.295Z,34.15
2019-03-24T04:12:22.596Z,46.17
2019-03-24T04:14:51.795Z,34.03
2019-03-24T04:17:20.575Z,39.13
2019-03-24T04:19:53.049Z,35.60
2019-03-24T04:22:24.910Z,34.38
2019-03-24T04:25:11.928Z,48.85
2019-03-24T04:27:42.061Z,31.87
2019-03-24T04:30:14.532Z,32.27
2019-03-24T04:32:53.872Z,26.40
2019-03-24T04:35:24.236Z,45.00
2019-03-24T04:37:53.078Z,30.53
2019-03-24T04:40:26.614Z,32.55
2019-03-24T04:42:56.979Z,38.50
2019-03-24T04:45:25.563Z,41.05
2019-03-24T04:47:57.534Z,28.60
2019-03-24T04:50:36.882Z,32.55
2019-03-24T04:53:09.503Z,28.65
2019-03-24T04:55:40.806Z,42.47
2019-03-24T04:58:13.418Z,35.70
2019-03-24T05:00:47.749Z,30.13
2019-03-24T05:03:18.204Z,37.70
2019-03-24T05:05:58.889Z,35.60
2019-03-24T05:08:36.414Z,31.15
2019-03-24T05:11:17.763Z,32.57
2019-03-24T05:13:54.073Z,29.87
2019-03-24T05:16:30.357Z,31.75
2019-03-24T05:19:03.864Z,41.40
2019-03-24T05:21:38.459Z,39.40
2019-03-24T05:26:53.596Z,30.50
2019-03-24T05:29:28.976Z,32.97
2019-03-24T05:32:04.493Z,23.80
2019-03-24T05:34:42.583Z,34.77
2019-03-24T05:37:19.566Z,26.20
2019-03-24T05:40:05.976Z,30.82
2019-03-24T05:42:43.570Z,26.42
2019-03-24T05:45:23.797Z,33.70
2019-03-24T05:47:58.022Z,29.00
2019-03-24T05:50:35.275Z,29.33
2019-03-24T05:53:07.245Z,35.97
2019-03-24T05:55:53.355Z,32.57
2019-03-24T06:00:53.526Z,35.85
2019-03-24T06:03:31.296Z,31.87
2019-03-24T06:06:05.622Z,31.85
2019-03-24T06:08:45.355Z,51.67
2019-03-24T06:11:29.095Z,41.75
2019-03-24T06:14:07.300Z,39.73
2019-03-24T06:16:44.790Z,37.35
2019-03-24T06:19:26.519Z,36.33
2019-03-24T06:22:00.298Z,50.20
2019-03-24T06:24:35.252Z,41.53
2019-03-24T06:27:12.154Z,42.25
2019-03-24T06:29:48.050Z,41.00
2019-03-24T06:32:26.846Z,46.68
2019-03-24T06:35:00.346Z,38.38
2019-03-24T06:37:30.513Z,48.38
2019-03-24T06:40:04.269Z,54.93
2019-03-24T06:42:33.054Z,40.27
2019-03-24T06:45:06.244Z,47.62
2019-03-24T06:47:38.406Z,47.83
2019-03-24T06:50:10.579Z,44.85
2019-03-24T06:52:40.690Z,48.70
2019-03-24T06:55:11.012Z,48.80
2019-03-24T06:57:42.462Z,45.08
2019-03-24T07:00:13.943Z,48.20
2019-03-24T07:02:52.586Z,46.63
2019-03-24T07:05:21.624Z,49.93
2019-03-24T07:07:52.050Z,42.57
2019-03-24T07:10:22.159Z,42.27
2019-03-24T07:12:54.249Z,52.00
2019-03-24T07:15:26.618Z,37.28
2019-03-24T07:18:08.108Z,43.00
2019-03-24T07:20:30.540Z,46.50
2019-03-24T07:23:03.930Z,41.75
2019-03-24T07:25:34.575Z,43.90
2019-03-24T07:28:14.086Z,45.92
2019-03-24T07:30:39.702Z,39.73
2019-03-24T07:33:13.810Z,39.30
2019-03-24T07:35:50.267Z,42.08
2019-03-24T07:40:47.463Z,35.55
2019-03-24T07:43:21.981Z,40.50
2019-03-24T07:45:54.945Z,38.60
2019-03-24T07:48:25.497Z,40.58
2019-03-24T07:50:54.676Z,39.88
2019-03-24T07:53:29.934Z,41.15
2019-03-24T07:55:58.497Z,39.07
2019-03-24T07:58:31.888Z,39.30
2019-03-24T08:01:05.536Z,38.60
2019-03-24T08:03:34.782Z,41.48
2019-03-24T08:06:03.676Z,39.93
2019-03-24T08:08:43.965Z,41.90
2019-03-24T08:11:09.238Z,47.20
2019-03-24T08:13:52.871Z,48.70
2019-03-24T08:16:16.287Z,39.55
2019-03-24T08:18:48.107Z,38.43
2019-03-24T08:21:20.888Z,40.00
2019-03-24T08:23:53.832Z,46.77
2019-03-24T08:26:22.541Z,42.03
2019-03-24T08:28:55.555Z,43.75
2019-03-24T08:31:26.970Z,47.03
2019-03-24T08:33:57.092Z,48.40
2019-03-24T08:36:30.300Z,39.17
2019-03-24T08:39:05.161Z,38.50
2019-03-24T08:41:35.734Z,38.03
2019-03-24T08:44:06.491Z,38.40
2019-03-24T08:46:39.272Z,40.30
2019-03-24T08:49:08.161Z,42.00
2019-03-24T08:51:38.260Z,45.10
2019-03-24T08:54:10.023Z,44.90
2019-03-24T08:56:41.483Z,43.13
2019-03-24T08:59:11.310Z,47.65
2019-03-24T09:01:51.864Z,58.48
2019-03-24T09:04:30.905Z,48.05
2019-03-24T09:07:05.178Z,50.77
2019-03-24T09:09:39.329Z,44.90
2019-03-24T09:12:16.386Z,56.63
2019-03-24T09:14:52.764Z,50.08
2019-03-24T09:17:23.782Z,47.83
2019-03-24T09:20:01.538Z,52.50
2019-03-24T09:22:38.401Z,54.83
2019-03-24T09:25:17.880Z,54.48
2019-03-24T09:27:51.931Z,46.55
2019-03-24T09:30:38.825Z,50.43
2019-03-24T09:33:15.133Z,47.75
2019-03-24T09:35:58.459Z,54.50
2019-03-24T09:38:36.218Z,47.65
2019-03-24T09:41:21.795Z,50.12
2019-03-24T09:43:59.999Z,46.90
2019-03-24T09:46:39.586Z,49.42
2019-03-24T09:49:18.464Z,45.20
2019-03-24T09:51:59.464Z,48.25
2019-03-24T09:54:36.749Z,50.03
2019-03-24T09:57:16.779Z,50.75
2019-03-24T09:59:51.599Z,50.95
2019-03-24T10:02:29.004Z,43.60
2019-03-24T10:04:57.873Z,39.92
2019-03-24T10:07:31.529Z,37.80
2019-03-24T10:10:11.228Z,48.33
2019-03-24T10:12:43.940Z,43.52
2019-03-24T10:15:17.965Z,48.43
2019-03-24T10:17:53.782Z,35.55
2019-03-24T10:20:42.231Z,39.13
2019-03-24T10:23:10.428Z,40.08
2019-03-24T10:25:45.734Z,48.30
2019-03-24T10:28:24.651Z,47.77
2019-03-24T10:31:03.319Z,46.83
2019-03-24T10:33:46.495Z,40.90
2019-03-24T10:36:29.001Z,28.47
2019-03-24T10:39:06.697Z,30.00
2019-03-24T10:41:46.572Z,39.03
2019-03-24T10:44:31.814Z,37.88
2019-03-24T10:47:05.672Z,38.60
2019-03-24T10:49:44.851Z,36.10
2019-03-24T10:52:22.024Z,37.40
2019-03-24T10:54:57.062Z,35.23
2019-03-24T10:57:36.693Z,30.68
2019-03-24T11:00:10.901Z,38.00
2019-03-24T11:02:46.463Z,37.45
2019-03-24T11:05:16.994Z,32.55
2019-03-24T11:07:53.618Z,29.30
2019-03-24T11:10:35.770Z,29.07
2019-03-24T11:13:14.519Z,28.72
2019-03-24T11:15:50.380Z,28.23
2019-03-24T11:18:33.158Z,28.27
2019-03-24T11:21:11.568Z,17.77
2019-03-24T11:23:57.223Z,18.05
2019-03-24T11:26:35.555Z,24.80
2019-03-24T11:29:25.027Z,23.30
2019-03-24T11:32:09.800Z,22.00
2019-03-24T11:34:42.138Z,29.13
2019-03-24T11:37:18.346Z,24.25
2019-03-24T11:39:44.794Z,21.30
2019-03-24T11:42:17.325Z,23.37
2019-03-24T11:44:47.366Z,29.12
2019-03-24T11:47:26.540Z,24.02
2019-03-24T11:49:51.577Z,33.83
2019-03-24T11:52:21.778Z,29.03
2019-03-24T11:54:52.223Z,19.37
2019-03-24T11:57:26.127Z,21.42
2019-03-24T11:59:54.886Z,21.13
2019-03-24T12:02:36.599Z,27.50
2019-03-24T12:05:08.545Z,21.14
2019-03-24T12:07:37.127Z,27.58
2019-03-24T12:10:08.833Z,17.47
2019-03-24T12:12:45.896Z,32.20
2019-03-24T12:15:15.671Z,14.13
2019-03-24T12:17:45.993Z,10.83
2019-03-24T12:20:19.922Z,7.70
2019-03-24T12:25:31.629Z,20.08
2019-03-24T12:28:09.734Z,17.80
2019-03-24T12:30:45.105Z,18.02
2019-03-24T12:33:22.491Z,14.67
2019-03-24T12:35:56.954Z,16.32
2019-03-24T12:38:30.295Z,13.88
2019-03-24T12:41:24.222Z,26.27
2019-03-24T12:43:52.369Z,15.50
2019-03-24T12:46:31.509Z,16.80
2019-03-24T12:49:08.394Z,16.50
2019-03-24T12:51:41.203Z,20.60
2019-03-24T12:54:16.670Z,17.27
2019-03-24T12:56:59.111Z,21.48
2019-03-24T12:59:35.818Z,19.42
2019-03-24T13:02:11.651Z,12.23
2019-03-24T13:04:51.180Z,16.93
2019-03-24T13:07:24.674Z,22.97
2019-03-24T13:10:01.181Z,22.13
2019-03-24T13:12:37.256Z,15.40
2019-03-24T13:15:12.007Z,12.67
2019-03-24T13:17:51.092Z,15.90
2019-03-24T13:20:38.600Z,12.07
2019-03-24T13:23:07.612Z,17.57
2019-03-24T13:25:42.949Z,22.65
2019-03-24T13:28:27.331Z,22.37
2019-03-24T13:31:10.315Z,23.92
2019-03-24T13:33:52.916Z,21.77
2019-03-24T13:36:29.019Z,13.60
2019-03-24T13:39:05.358Z,12.07
2019-03-24T13:44:17.385Z,15.93
2019-03-24T13:46:56.595Z,27.20
2019-03-24T13:49:36.175Z,14.30
2019-03-24T13:52:15.655Z,13.38
2019-03-24T13:55:06.495Z,14.15
2019-03-24T13:57:42.197Z,22.20
2019-03-24T14:00:20.060Z,21.48
2019-03-24T14:02:59.899Z,20.92
2019-03-24T14:05:37.729Z,13.10
2019-03-24T14:08:14.878Z,23.32
2019-03-24T14:10:51.972Z,27.02
2019-03-24T14:13:29.366Z,27.32
2019-03-24T14:16:10.995Z,25.92
2019-03-24T14:18:50.521Z,23.30
2019-03-24T14:21:26.833Z,20.93
2019-03-24T14:24:07.720Z,20.97
2019-03-24T14:26:44.147Z,28.13
2019-03-24T14:29:22.864Z,27.55
2019-03-24T14:31:59.715Z,25.50
2019-03-24T14:34:36.065Z,31.15
2019-03-24T14:37:21.290Z,24.72
2019-03-24T14:39:58.439Z,31.80
2019-03-24T14:42:34.231Z,25.08
2019-03-24T14:45:14.703Z,25.65
2019-03-24T14:47:50.225Z,24.00
2019-03-24T14:50:25.629Z,26.00
2019-03-24T14:53:03.642Z,25.55
2019-03-24T14:55:51.239Z,27.27
2019-03-24T14:58:22.250Z,24.00
2019-03-24T15:01:02.551Z,21.02
2019-03-24T15:03:36.516Z,27.43
2019-03-24T15:06:17.331Z,30.10
2019-03-24T15:08:57.474Z,28.85
2019-03-24T15:11:34.097Z,22.17
2019-03-24T15:14:13.332Z,25.17
2019-03-24T15:16:50.519Z,24.07
2019-03-24T15:19:34.519Z,20.05
2019-03-24T15:22:02.621Z,23.60
2019-03-24T15:24:37.463Z,33.05
2019-03-24T15:27:15.894Z,26.57
2019-03-24T15:29:55.008Z,28.63
2019-03-24T15:32:36.173Z,32.37
2019-03-24T15:35:18.492Z,29.84
2019-03-24T15:38:07.833Z,18.48
2019-03-24T15:40:40.737Z,29.80
2019-03-24T15:43:21.447Z,23.80
2019-03-24T15:45:54.930Z,27.52
2019-03-24T15:51:16.061Z,31.33
2019-03-24T15:53:43.773Z,21.70
2019-03-24T15:56:26.068Z,26.93
2019-03-24T15:59:02.378Z,23.73
2019-03-24T16:01:48.455Z,22.10
2019-03-24T16:04:22.823Z,22.75
2019-03-24T16:07:09.705Z,25.40
2019-03-24T16:09:40.596Z,28.07
2019-03-24T16:12:18.795Z,24.75
2019-03-24T16:15:07.129Z,36.10
2019-03-24T16:17:38.776Z,33.70
2019-03-24T16:20:13.352Z,25.13
2019-03-24T16:22:51.856Z,26.40
2019-03-24T16:25:28.161Z,27.85
2019-03-24T16:28:13.956Z,23.32
2019-03-24T16:30:48.624Z,34.17
2019-03-24T16:33:28.581Z,27.27
2019-03-24T16:36:04.782Z,31.55
2019-03-24T16:38:48.751Z,28.42
2019-03-24T16:41:17.292Z,30.10
2019-03-24T16:43:51.394Z,31.53
2019-03-24T16:49:27.750Z,28.33
2019-03-24T16:52:03.432Z,25.05
2019-03-24T16:54:38.317Z,34.63
2019-03-24T16:57:20.011Z,31.40
2019-03-24T16:59:57.114Z,32.65
2019-03-24T17:02:29.300Z,28.10
2019-03-24T17:05:07.204Z,25.77
2019-03-24T17:07:43.920Z,29.63
2019-03-24T17:10:20.415Z,27.73
2019-03-24T17:13:03.240Z,25.43
2019-03-24T17:15:46.868Z,25.35
2019-03-24T17:18:24.481Z,29.25
2019-03-24T17:21:06.661Z,26.53
2019-03-24T17:23:43.480Z,36.93
2019-03-24T17:26:14.451Z,28.23
2019-03-24T17:28:43.643Z,25.48
2019-03-24T17:31:20.443Z,30.10
2019-03-24T17:33:56.910Z,34.95
2019-03-24T17:36:34.781Z,27.45
2019-03-24T17:39:12.763Z,30.96
2019-03-24T17:41:51.203Z,27.73
2019-03-24T17:44:30.564Z,36.57
2019-03-24T17:47:05.285Z,29.18
2019-03-24T17:49:43.844Z,30.50
2019-03-24T17:52:24.986Z,34.53
2019-03-24T17:54:59.450Z,33.42
2019-03-24T17:57:36.476Z,31.00
2019-03-24T18:00:19.603Z,63.20
2019-03-24T18:02:54.506Z,70.20
2019-03-24T18:05:33.150Z,47.30
2019-03-24T18:11:15.879Z,42.37
2019-03-24T18:13:58.919Z,38.90
2019-03-24T18:16:35.658Z,34.88
2019-03-24T18:19:15.020Z,40.17
2019-03-24T18:21:53.888Z,34.33
2019-03-24T18:24:31.207Z,38.63
2019-03-24T18:27:10.547Z,39.03
2019-03-24T18:29:50.128Z,42.53
2019-03-24T18:32:25.944Z,32.23
2019-03-24T18:35:03.898Z,35.92
2019-03-24T18:37:38.541Z,34.87
2019-03-24T18:40:14.665Z,42.63
2019-03-24T18:42:53.146Z,33.47
2019-03-24T18:45:37.013Z,36.97
2019-03-24T18:48:12.588Z,56.03
2019-03-24T18:53:28.214Z,60.03
2019-03-24T18:56:09.856Z,44.83
2019-03-24T18:58:49.154Z,45.52
2019-03-24T19:01:29.694Z,46.03
2019-03-24T19:04:01.936Z,54.20
2019-03-24T19:09:28.124Z,43.60
2019-03-24T19:12:07.987Z,44.42
2019-03-24T19:14:46.219Z,50.83
2019-03-24T19:17:35.821Z,59.07
2019-03-24T19:20:15.597Z,57.53
2019-03-24T19:22:49.087Z,44.37
2019-03-24T19:25:24.752Z,44.57
2019-03-24T19:31:03.232Z,45.67
2019-03-24T19:33:43.430Z,59.15
2019-03-24T19:36:20.261Z,83.92
2019-03-24T19:38:55.109Z,76.55
2019-03-24T19:41:34.893Z,55.83
2019-03-24T19:44:12.529Z,46.53
2019-03-24T19:47:04.805Z,31.43
2019-03-24T19:49:48.169Z,39.83
2019-03-24T19:52:25.919Z,40.85
2019-03-24T19:55:06.063Z,46.10
2019-03-24T19:57:47.437Z,49.07
2019-03-24T20:00:23.322Z,106.83
2019-03-24T20:03:03.548Z,126.97
2019-03-24T20:05:42.735Z,228.57
2019-03-24T20:11:40.353Z,57.33
2019-03-24T20:14:23.974Z,46.00
2019-03-24T20:16:54.861Z,52.15
2019-03-24T20:19:29.124Z,41.33
2019-03-24T20:22:02.626Z,43.60
2019-03-24T20:24:38.782Z,42.00
2019-03-24T20:27:17.860Z,49.70
2019-03-24T20:29:52.755Z,46.87
2019-03-24T20:32:26.050Z,47.57
2019-03-24T20:35:01.276Z,43.27
2019-03-24T20:37:38.103Z,44.33
2019-03-24T20:40:13.709Z,48.38
2019-03-24T20:42:49.576Z,42.35
2019-03-24T20:45:24.817Z,47.07
2019-03-24T20:47:59.781Z,44.67
2019-03-24T20:50:34.527Z,45.07
2019-03-24T20:53:18.043Z,45.53
2019-03-24T20:55:48.062Z,46.28
2019-03-24T20:58:24.508Z,47.90
2019-03-24T21:00:58.357Z,52.77
2019-03-24T21:03:37.171Z,44.80
2019-03-24T21:06:10.254Z,49.08
2019-03-24T21:08:43.141Z,43.48
2019-03-24T21:11:16.574Z,52.67
2019-03-24T21:13:50.790Z,41.27
2019-03-24T21:16:25.523Z,47.27
2019-03-24T21:18:58.722Z,54.67
2019-03-24T21:21:32.128Z,46.70
2019-03-24T21:24:06.285Z,48.15
2019-03-24T21:26:39.399Z,42.20
2019-03-24T21:29:12.586Z,46.95
2019-03-24T21:31:46.785Z,51.65
2019-03-24T21:34:23.700Z,52.03
2019-03-24T21:36:57.700Z,51.68
2019-03-24T21:39:35.818Z,50.15
2019-03-24T21:42:12.092Z,50.98
2019-03-24T21:44:51.550Z,59.87
2019-03-24T21:47:24.005Z,55.50
2019-03-24T21:49:56.791Z,53.50
2019-03-24T21:52:32.410Z,56.05
2019-03-24T21:55:07.534Z,63.00
2019-03-24T21:57:37.773Z,55.40
2019-03-24T22:00:11.624Z,65.67
2019-03-24T22:02:41.418Z,51.75
2019-03-24T22:05:15.234Z,52.30
2019-03-24T22:07:45.686Z,60.97
2019-03-24T22:10:14.274Z,56.03
2019-03-24T22:12:43.392Z,57.47
2019-03-24T22:15:16.000Z,51.97
2019-03-24T22:17:45.266Z,56.63
2019-03-24T22:20:14.364Z,49.60
2019-03-24T22:22:43.879Z,48.70
2019-03-24T22:25:12.835Z,53.87
2019-03-24T22:27:41.617Z,55.55
2019-03-24T22:30:10.509Z,52.57
2019-03-24T22:32:39.623Z,54.80
2019-03-24T22:35:08.186Z,52.62
2019-03-24T22:37:37.813Z,50.53
2019-03-24T22:40:08.017Z,50.67
2019-03-24T22:42:37.026Z,58.13
2019-03-24T22:45:06.923Z,54.46
2019-03-24T22:47:35.502Z,59.50
2019-03-24T22:50:06.986Z,67.30
2019-03-24T22:52:36.144Z,59.35
2019-03-24T22:55:07.076Z,56.85
2019-03-24T22:57:36.815Z,58.90
2019-03-24T23:00:09.734Z,49.46
2019-03-24T23:02:40.718Z,57.17
2019-03-24T23:05:09.292Z,60.98
2019-03-24T23:07:38.185Z,61.53
2019-03-24T23:10:07.198Z,60.45
2019-03-24T23:12:35.758Z,54.65
2019-03-24T23:15:06.691Z,52.10
2019-03-24T23:17:36.705Z,53.13
2019-03-24T23:20:07.360Z,62.66
2019-03-24T23:22:36.533Z,56.65
2019-03-24T23:25:07.071Z,52.36
2019-03-24T23:27:35.955Z,56.47
2019-03-24T23:30:07.630Z,61.38
2019-03-24T23:32:36.498Z,50.57
2019-03-24T23:35:08.150Z,49.27
2019-03-24T23:37:37.038Z,54.77
2019-03-24T23:40:06.750Z,48.95
2019-03-24T23:42:35.642Z,56.93
2019-03-24T23:45:07.109Z,54.53
2019-03-24T23:47:35.971Z,51.67
2019-03-24T23:50:06.956Z,58.94
2019-03-24T23:52:35.798Z,62.20
2019-03-24T23:55:05.202Z,56.87
2019-03-24T23:57:34.097Z,46.73
